Time;durP1;ratioP1;P1;durP2;ratioP2;P2;SDS_P1;SDS_P2;PMS_P1;PMS_P2;Temp;Humidity;BMP_temperature;BMP_pressure;BME280_temperature;BME280_humidity;BME280_pressure;Samples;Min_cycle;Max_cycle;Signal;HPM_P1;HPM_P2
2023/12/01 00:00:44;;;;;;;23.40;9.35;;;;;;;;;;5020887;28;20416;-43
2023/12/01 00:03:12;;;;;;;23.30;9.43;;;;;;;;;;5027972;28;20087;-43
2023/12/01 00:05:40;;;;;;;21.93;8.93;;;;;;;;;;5016465;28;20036;-43
2023/12/01 00:08:09;;;;;;;22.73;8.57;;;;;;;;;;5029434;28;20424;-45
2023/12/01 00:10:36;;;;;;;23.75;9.90;;;;;;;;;;5025694;28;20045;-43
2023/12/01 00:13:04;;;;;;;24.15;10.02;;;;;;;;;;5029172;28;20041;-45
2023/12/01 00:15:32;;;;;;;22.23;8.43;;;;;;;;;;5029172;28;20033;-43
2023/12/01 00:18:00;;;;;;;21.33;8.33;;;;;;;;;;5026819;28;20040;-47
2023/12/01 00:20:28;;;;;;;24.10;9.20;;;;;;;;;;5024476;28;20113;-43
2023/12/01 00:22:56;;;;;;;23.45;8.63;;;;;;;;;;5028601;28;20401;-43
2023/12/01 00:25:25;;;;;;;23.83;9.27;;;;;;;;;;5020984;28;20041;-43
2023/12/01 00:27:53;;;;;;;22.25;9.52;;;;;;;;;;5031221;28;20056;-43
2023/12/01 00:30:21;;;;;;;23.17;9.87;;;;;;;;;;5020893;28;20037;-43
2023/12/01 00:32:49;;;;;;;21.75;8.60;;;;;;;;;;5028819;28;20033;-43
2023/12/01 00:35:17;;;;;;;25.38;9.48;;;;;;;;;;5021720;28;20434;-43
2023/12/01 00:37:45;;;;;;;24.67;9.20;;;;;;;;;;5027412;28;20037;-43
2023/12/01 00:40:13;;;;;;;26.23;9.70;;;;;;;;;;5020013;28;20380;-43
2023/12/01 00:42:43;;;;;;;23.93;9.67;;;;;;;;;;5026568;28;20312;-43
2023/12/01 00:45:11;;;;;;;24.15;9.82;;;;;;;;;;5025622;28;20096;-43
2023/12/01 00:47:38;;;;;;;25.42;8.68;;;;;;;;;;5023716;28;20052;-43
2023/12/01 00:50:07;;;;;;;24.88;9.20;;;;;;;;;;5028293;28;20032;-44
2023/12/01 00:52:35;;;;;;;24.23;9.52;;;;;;;;;;5021526;28;23034;-43
2023/12/01 00:55:03;;;;;;;23.17;8.70;;;;;;;;;;5030824;28;20631;-43
2023/12/01 00:57:31;;;;;;;20.05;8.75;;;;;;;;;;5023092;28;20041;-43
2023/12/01 01:00:03;;;;;;;23.00;8.77;;;;;;;;;;5033476;28;20133;-42
2023/12/01 01:02:31;;;;;;;21.27;9.35;;;;;;;;;;5018134;28;20048;-43
2023/12/01 01:04:59;;;;;;;25.98;9.75;;;;;;;;;;5031740;28;20055;-43
2023/12/01 01:07:26;;;;;;;27.30;10.43;;;;;;;;;;5021587;28;20040;-43
2023/12/01 01:09:54;;;;;;;29.02;11.32;;;;;;;;;;5028349;28;20098;-43
2023/12/01 01:12:22;;;;;;;23.67;9.98;;;;;;;;;;5025892;28;20067;-45
2023/12/01 01:14:50;;;;;;;25.88;10.85;;;;;;;;;;5025663;28;20045;-45
2023/12/01 01:17:19;;;;;;;27.17;10.00;;;;;;;;;;5018646;28;20124;-43
2023/12/01 01:19:47;;;;;;;26.57;9.27;;;;;;;;;;5029212;28;20041;-43
2023/12/01 01:22:15;;;;;;;28.02;10.73;;;;;;;;;;5019601;28;20048;-43
2023/12/01 01:24:43;;;;;;;27.58;10.10;;;;;;;;;;5032497;28;20479;-43
2023/12/01 01:27:11;;;;;;;23.50;9.63;;;;;;;;;;5017256;28;20029;-43
2023/12/01 01:29:39;;;;;;;27.55;10.85;;;;;;;;;;5029438;28;20045;-43
2023/12/01 01:32:07;;;;;;;29.30;10.93;;;;;;;;;;5021839;28;20052;-43
2023/12/01 01:34:36;;;;;;;23.92;9.82;;;;;;;;;;5029199;28;20454;-43
2023/12/01 01:37:04;;;;;;;27.23;9.82;;;;;;;;;;5021679;28;20045;-45
2023/12/01 01:39:32;;;;;;;22.63;8.90;;;;;;;;;;5045239;28;20037;-43
2023/12/01 01:42:00;;;;;;;27.23;8.77;;;;;;;;;;5024137;28;20041;-43
2023/12/01 01:44:28;;;;;;;22.60;8.57;;;;;;;;;;5020483;28;20451;-44
2023/12/01 01:46:55;;;;;;;25.77;10.20;;;;;;;;;;5026813;28;20041;-44
2023/12/01 01:49:25;;;;;;;23.50;8.80;;;;;;;;;;5021509;28;20040;-43
2023/12/01 01:51:55;;;;;;;22.88;9.02;;;;;;;;;;5026708;28;20049;-43
2023/12/01 01:54:24;;;;;;;22.55;8.05;;;;;;;;;;5016808;28;20037;-43
2023/12/01 01:56:52;;;;;;;24.27;8.73;;;;;;;;;;5022238;28;20045;-44
2023/12/01 01:59:21;;;;;;;24.52;8.95;;;;;;;;;;5013331;28;20599;-43
2023/12/01 02:01:49;;;;;;;20.88;8.63;;;;;;;;;;5030157;28;20392;-44
2023/12/01 02:04:17;;;;;;;24.75;9.15;;;;;;;;;;5022892;28;20118;-43
2023/12/01 02:06:45;;;;;;;21.48;8.57;;;;;;;;;;5023031;28;20048;-43
2023/12/01 02:09:16;;;;;;;22.27;8.63;;;;;;;;;;5021442;28;20037;-43
2023/12/01 02:11:44;;;;;;;26.85;9.00;;;;;;;;;;5025495;28;20128;-43
2023/12/01 02:14:13;;;;;;;22.42;8.98;;;;;;;;;;5012648;28;20060;-44
2023/12/01 02:16:45;;;;;;;23.83;8.63;;;;;;;;;;5023718;28;20044;-43
2023/12/01 02:19:14;;;;;;;26.73;8.98;;;;;;;;;;5018981;28;20564;-45
2023/12/01 02:21:45;;;;;;;22.17;8.20;;;;;;;;;;5027869;28;20049;-43
2023/12/01 02:24:12;;;;;;;22.70;9.52;;;;;;;;;;5021627;28;20539;-43
2023/12/01 02:26:40;;;;;;;21.20;8.48;;;;;;;;;;5028570;28;20557;-43
2023/12/01 02:29:09;;;;;;;26.75;9.27;;;;;;;;;;5020438;28;20086;-43
2023/12/01 02:31:36;;;;;;;23.40;9.13;;;;;;;;;;5019911;28;20044;-44
2023/12/01 02:34:04;;;;;;;26.47;9.00;;;;;;;;;;5027110;28;20578;-43
2023/12/01 02:36:32;;;;;;;26.75;9.40;;;;;;;;;;5021253;28;20041;-43
2023/12/01 02:39:02;;;;;;;23.65;8.95;;;;;;;;;;5034588;28;20492;-45
2023/12/01 02:41:30;;;;;;;25.25;9.75;;;;;;;;;;5020979;28;20483;-42
2023/12/01 02:43:58;;;;;;;23.63;9.05;;;;;;;;;;5022938;28;20049;-46
2023/12/01 02:46:25;;;;;;;24.77;9.53;;;;;;;;;;5022193;28;20044;-43
2023/12/01 02:48:53;;;;;;;25.20;9.85;;;;;;;;;;5027124;28;20029;-43
2023/12/01 02:51:23;;;;;;;24.08;9.32;;;;;;;;;;5025440;28;20052;-43
2023/12/01 02:53:50;;;;;;;23.13;8.63;;;;;;;;;;5037072;28;20057;-44
2023/12/01 02:56:20;;;;;;;26.85;10.10;;;;;;;;;;5020126;28;20037;-44
2023/12/01 02:58:47;;;;;;;23.90;9.03;;;;;;;;;;5034318;28;20203;-43
2023/12/01 03:01:16;;;;;;;27.83;10.60;;;;;;;;;;5015870;28;20037;-44
2023/12/01 03:03:44;;;;;;;25.83;9.18;;;;;;;;;;5035198;28;20483;-43
2023/12/01 03:06:12;;;;;;;29.35;10.88;;;;;;;;;;5031100;28;20136;-44
2023/12/01 03:08:39;;;;;;;22.38;9.10;;;;;;;;;;5030983;28;20041;-43
2023/12/01 03:11:07;;;;;;;27.17;9.90;;;;;;;;;;5029880;28;20040;-43
2023/12/01 03:13:36;;;;;;;23.60;8.75;;;;;;;;;;5033090;28;20052;-43
2023/12/01 03:16:05;;;;;;;24.92;10.23;;;;;;;;;;5030079;28;20207;-43
2023/12/01 03:18:33;;;;;;;27.98;9.80;;;;;;;;;;5030737;28;20052;-43
2023/12/01 03:21:00;;;;;;;27.15;9.80;;;;;;;;;;5026516;28;20049;-43
2023/12/01 03:23:28;;;;;;;24.77;8.77;;;;;;;;;;5031399;28;20041;-43
2023/12/01 03:25:56;;;;;;;27.48;10.15;;;;;;;;;;5022977;28;20243;-44
2023/12/01 03:28:24;;;;;;;25.08;9.13;;;;;;;;;;5029672;28;20041;-43
2023/12/01 03:30:55;;;;;;;24.65;9.43;;;;;;;;;;5024233;28;20028;-43
2023/12/01 03:33:23;;;;;;;27.70;9.88;;;;;;;;;;5032445;28;20045;-43
2023/12/01 03:35:51;;;;;;;23.83;9.33;;;;;;;;;;5029254;28;20048;-43
2023/12/01 03:38:19;;;;;;;27.55;10.07;;;;;;;;;;5027923;28;20052;-45
2023/12/01 03:40:46;;;;;;;25.50;9.93;;;;;;;;;;5029559;28;20037;-44
2023/12/01 03:43:14;;;;;;;25.05;9.70;;;;;;;;;;5030281;28;20045;-43
2023/12/01 03:45:42;;;;;;;28.95;10.43;;;;;;;;;;5029744;28;20049;-43
2023/12/01 03:48:11;;;;;;;25.77;9.97;;;;;;;;;;5024993;28;20048;-44
2023/12/01 03:50:39;;;;;;;28.10;9.98;;;;;;;;;;5034149;28;20044;-43
2023/12/01 03:53:07;;;;;;;24.95;9.82;;;;;;;;;;5028998;28;20057;-44
2023/12/01 03:55:34;;;;;;;26.80;10.27;;;;;;;;;;5030864;28;20067;-43
2023/12/01 03:58:03;;;;;;;24.13;9.48;;;;;;;;;;5019541;28;20065;-43
2023/12/01 04:00:32;;;;;;;29.77;11.37;;;;;;;;;;5022670;28;20558;-43
2023/12/01 04:03:19;;;;;;;27.73;10.43;;;;;;;;;;5017625;28;20045;-43
2023/12/01 04:05:47;;;;;;;28.38;11.48;;;;;;;;;;5029926;28;20041;-43
2023/12/01 04:08:14;;;;;;;27.45;10.52;;;;;;;;;;5024258;28;20119;-43
2023/12/01 04:10:43;;;;;;;30.23;11.02;;;;;;;;;;5030101;28;20037;-43
2023/12/01 04:13:12;;;;;;;30.77;11.87;;;;;;;;;;5030221;28;20342;-44
2023/12/01 04:15:41;;;;;;;28.33;11.80;;;;;;;;;;5023962;28;20119;-45
2023/12/01 04:18:08;;;;;;;32.65;12.52;;;;;;;;;;5023269;28;20056;-44
2023/12/01 04:20:38;;;;;;;28.92;11.07;;;;;;;;;;5016039;28;20045;-44
2023/12/01 04:23:09;;;;;;;30.33;11.38;;;;;;;;;;5036858;28;20025;-45
2023/12/01 04:25:37;;;;;;;27.77;10.80;;;;;;;;;;5025797;28;20044;-43
2023/12/01 04:28:05;;;;;;;27.00;10.18;;;;;;;;;;5033629;28;20068;-45
2023/12/01 04:30:34;;;;;;;28.80;10.65;;;;;;;;;;5046760;28;20059;-43
2023/12/01 04:33:19;;;;;;;28.45;10.85;;;;;;;;;;5018226;28;20660;-43
2023/12/01 04:35:47;;;;;;;28.00;10.90;;;;;;;;;;5027629;28;20495;-44
2023/12/01 04:38:15;;;;;;;30.77;10.93;;;;;;;;;;5027019;28;20045;-43
2023/12/01 04:40:43;;;;;;;27.50;10.63;;;;;;;;;;5028212;28;20059;-44
2023/12/01 04:43:11;;;;;;;28.42;10.82;;;;;;;;;;5030517;28;20033;-44
2023/12/01 04:45:38;;;;;;;30.35;11.15;;;;;;;;;;5020962;28;20044;-44
2023/12/01 04:48:08;;;;;;;29.92;10.93;;;;;;;;;;5029815;28;20041;-43
2023/12/01 04:50:39;;;;;;;30.90;10.90;;;;;;;;;;5032116;28;20484;-43
2023/12/01 04:53:08;;;;;;;28.08;10.68;;;;;;;;;;5029130;28;20045;-44
2023/12/01 04:55:36;;;;;;;34.00;11.88;;;;;;;;;;5026507;28;20067;-46
2023/12/01 04:58:04;;;;;;;31.33;12.40;;;;;;;;;;5031349;28;20053;-43
2023/12/01 05:00:49;;;;;;;35.50;11.35;;;;;;;;;;5017226;28;20230;-44
2023/12/01 05:03:18;;;;;;;31.30;11.60;;;;;;;;;;5048121;28;20069;-44
2023/12/01 05:05:45;;;;;;;32.75;12.02;;;;;;;;;;5021266;28;20811;-44
2023/12/01 05:08:15;;;;;;;30.80;11.98;;;;;;;;;;5032019;28;20037;-43
2023/12/01 05:10:44;;;;;;;33.63;11.82;;;;;;;;;;5026768;28;20208;-43
2023/12/01 05:13:14;;;;;;;32.28;11.43;;;;;;;;;;5026169;28;20052;-44
2023/12/01 05:15:42;;;;;;;32.87;11.37;;;;;;;;;;5018141;28;20068;-44
2023/12/01 05:18:11;;;;;;;30.70;10.88;;;;;;;;;;5021913;28;20098;-43
2023/12/01 05:20:39;;;;;;;28.92;10.75;;;;;;;;;;5033384;28;20171;-43
2023/12/01 05:23:09;;;;;;;30.40;10.95;;;;;;;;;;5021333;28;20511;-45
2023/12/01 05:25:41;;;;;;;24.83;9.90;;;;;;;;;;5028836;28;22925;-44
2023/12/01 05:28:11;;;;;;;25.93;10.20;;;;;;;;;;5030236;28;20111;-43
2023/12/01 05:30:40;;;;;;;27.63;11.40;;;;;;;;;;5031840;28;20054;-43
2023/12/01 05:33:08;;;;;;;29.60;10.25;;;;;;;;;;5022000;28;20715;-44
2023/12/01 05:35:53;;;;;;;25.35;10.15;;;;;;;;;;5027465;28;20052;-43
2023/12/01 05:38:21;;;;;;;27.85;10.88;;;;;;;;;;5029531;28;20041;-44
2023/12/01 05:40:50;;;;;;;29.30;10.93;;;;;;;;;;5028165;28;20048;-43
2023/12/01 05:43:18;;;;;;;29.98;11.02;;;;;;;;;;5033762;28;20048;-43
2023/12/01 05:45:46;;;;;;;33.38;11.75;;;;;;;;;;5023021;28;20044;-43
2023/12/01 05:48:15;;;;;;;29.02;10.73;;;;;;;;;;5026355;28;20044;-43
2023/12/01 05:50:43;;;;;;;31.58;10.75;;;;;;;;;;5022906;28;20036;-44
2023/12/01 05:53:13;;;;;;;31.30;10.83;;;;;;;;;;5024683;28;20418;-43
2023/12/01 05:55:41;;;;;;;30.35;11.60;;;;;;;;;;5022138;28;20045;-44
2023/12/01 05:58:14;;;;;;;28.05;11.10;;;;;;;;;;5024177;28;20123;-43
2023/12/01 06:00:42;;;;;;;31.17;11.45;;;;;;;;;;5023485;28;20091;-44
2023/12/01 06:03:11;;;;;;;32.15;12.32;;;;;;;;;;5030254;28;20491;-44
2023/12/01 06:05:39;;;;;;;30.17;11.47;;;;;;;;;;5016233;28;20593;-43
2023/12/01 06:08:09;;;;;;;32.20;11.18;;;;;;;;;;5031656;28;20124;-43
2023/12/01 06:10:39;;;;;;;33.65;11.52;;;;;;;;;;5017799;28;20041;-43
2023/12/01 06:13:06;;;;;;;31.17;12.95;;;;;;;;;;5032362;28;20045;-43
2023/12/01 06:15:36;;;;;;;33.35;11.63;;;;;;;;;;5017850;28;20045;-43
2023/12/01 06:18:04;;;;;;;33.00;12.87;;;;;;;;;;5033469;28;20090;-43
2023/12/01 06:20:34;;;;;;;37.70;13.32;;;;;;;;;;5016144;28;20545;-43
2023/12/01 06:23:05;;;;;;;33.15;12.10;;;;;;;;;;5025182;28;20146;-44
2023/12/01 06:25:35;;;;;;;34.70;11.85;;;;;;;;;;5021234;28;20056;-44
2023/12/01 06:28:05;;;;;;;32.95;12.35;;;;;;;;;;5025520;28;20051;-44
2023/12/01 06:30:34;;;;;;;33.73;11.53;;;;;;;;;;5030119;28;20048;-43
2023/12/01 06:33:06;;;;;;;33.22;11.18;;;;;;;;;;5028280;28;20044;-43
2023/12/01 06:35:36;;;;;;;31.38;11.00;;;;;;;;;;5026891;28;20132;-43
2023/12/01 06:38:03;;;;;;;32.65;11.27;;;;;;;;;;5027867;28;20029;-44
2023/12/01 06:40:33;;;;;;;29.77;11.38;;;;;;;;;;5026484;28;20052;-45
2023/12/01 06:43:02;;;;;;;35.47;12.13;;;;;;;;;;5022365;28;20041;-44
2023/12/01 06:45:30;;;;;;;30.45;10.98;;;;;;;;;;5032873;28;20384;-43
2023/12/01 06:47:59;;;;;;;33.15;12.07;;;;;;;;;;5025125;28;20037;-43
2023/12/01 06:50:31;;;;;;;31.45;10.88;;;;;;;;;;5031714;28;20328;-44
2023/12/01 06:53:00;;;;;;;33.65;11.23;;;;;;;;;;5028048;28;20060;-43
2023/12/01 06:55:29;;;;;;;34.40;11.97;;;;;;;;;;5022934;28;20045;-44
2023/12/01 06:57:57;;;;;;;33.65;11.77;;;;;;;;;;5030819;28;20487;-43
2023/12/01 07:00:30;;;;;;;32.67;11.77;;;;;;;;;;5024408;28;20052;-44
2023/12/01 07:03:00;;;;;;;34.33;10.95;;;;;;;;;;5030120;28;20044;-43
2023/12/01 07:05:29;;;;;;;33.40;11.50;;;;;;;;;;5025306;28;20531;-43
2023/12/01 07:07:58;;;;;;;35.33;11.00;;;;;;;;;;5030953;28;20040;-43
2023/12/01 07:10:26;;;;;;;31.13;11.40;;;;;;;;;;4999625;28;20557;-43
2023/12/01 07:12:54;;;;;;;32.50;11.80;;;;;;;;;;5018884;28;20037;-45
2023/12/01 07:15:23;;;;;;;36.67;12.38;;;;;;;;;;5019061;28;20056;-44
2023/12/01 07:17:51;;;;;;;34.60;12.25;;;;;;;;;;5023962;28;20515;-43
2023/12/01 07:20:19;;;;;;;36.30;12.57;;;;;;;;;;5023313;28;20510;-43
2023/12/01 07:22:48;;;;;;;38.13;12.85;;;;;;;;;;5024563;28;20025;-44
2023/12/01 07:25:22;;;;;;;32.42;11.73;;;;;;;;;;5029855;28;20491;-43
2023/12/01 07:27:53;;;;;;;35.53;10.93;;;;;;;;;;5029126;28;20041;-43
2023/12/01 07:30:21;;;;;;;29.55;11.48;;;;;;;;;;5022829;28;20041;-44
2023/12/01 07:32:49;;;;;;;30.07;10.17;;;;;;;;;;5012881;28;20037;-44
2023/12/01 07:35:35;;;;;;;35.85;10.98;;;;;;;;;;5021213;28;20342;-44
2023/12/01 07:38:04;;;;;;;29.80;11.77;;;;;;;;;;5019799;28;20029;-43
2023/12/01 07:40:33;;;;;;;36.95;11.23;;;;;;;;;;5020002;28;20053;-43
2023/12/01 07:43:02;;;;;;;33.03;10.65;;;;;;;;;;5019687;28;20739;-43
2023/12/01 07:45:30;;;;;;;34.37;11.60;;;;;;;;;;5010460;28;20057;-45
2023/12/01 07:47:58;;;;;;;30.25;10.55;;;;;;;;;;4991441;28;20040;-43
2023/12/01 07:50:26;;;;;;;32.40;10.90;;;;;;;;;;5006232;28;20759;-44
2023/12/01 07:52:55;;;;;;;31.88;10.13;;;;;;;;;;5016521;28;20072;-47
2023/12/01 07:55:24;;;;;;;30.38;9.75;;;;;;;;;;5014171;28;20488;-44
2023/12/01 07:57:53;;;;;;;30.10;10.20;;;;;;;;;;5020984;28;20038;-43
2023/12/01 08:00:21;;;;;;;27.95;10.15;;;;;;;;;;5017208;28;20412;-43
2023/12/01 08:02:53;;;;;;;30.52;9.73;;;;;;;;;;5017845;28;20041;-44
2023/12/01 08:05:22;;;;;;;27.67;9.85;;;;;;;;;;5020745;28;20061;-43
2023/12/01 08:07:52;;;;;;;32.85;10.27;;;;;;;;;;5025495;28;20400;-43
2023/12/01 08:10:24;;;;;;;30.40;8.97;;;;;;;;;;5017733;28;20537;-44
2023/12/01 08:12:56;;;;;;;38.60;10.45;;;;;;;;;;5029277;28;20037;-43
2023/12/01 08:15:26;;;;;;;31.30;9.40;;;;;;;;;;5013601;28;20045;-45
2023/12/01 08:17:58;;;;;;;30.73;9.48;;;;;;;;;;5005585;28;20029;-45
2023/12/01 08:20:28;;;;;;;28.48;9.30;;;;;;;;;;5019811;28;20136;-44
2023/12/01 08:22:57;;;;;;;27.63;10.07;;;;;;;;;;4998225;28;20040;-44
2023/12/01 08:25:25;;;;;;;31.92;10.65;;;;;;;;;;5007182;28;20052;-43
2023/12/01 08:27:57;;;;;;;33.03;10.45;;;;;;;;;;5031797;28;20492;-44
2023/12/01 08:30:28;;;;;;;31.50;9.52;;;;;;;;;;5032933;28;20630;-44
2023/12/01 08:32:56;;;;;;;36.40;9.90;;;;;;;;;;5014724;28;20029;-44
2023/12/01 08:35:24;;;;;;;30.93;9.97;;;;;;;;;;4676801;28;10000731;-44
2023/12/01 08:37:53;;;;;;;33.30;10.75;;;;;;;;;;5013011;28;20136;-44
2023/12/01 08:40:20;;;;;;;26.38;9.65;;;;;;;;;;5020697;28;20040;-44
2023/12/01 08:42:52;;;;;;;26.63;7.85;;;;;;;;;;5012590;28;20045;-44
2023/12/01 08:45:22;;;;;;;25.98;8.50;;;;;;;;;;5012028;28;20094;-44
2023/12/01 08:47:52;;;;;;;24.23;7.47;;;;;;;;;;5021021;28;20091;-43
2023/12/01 08:50:20;;;;;;;28.13;9.15;;;;;;;;;;5023063;28;20036;-44
2023/12/01 08:52:48;;;;;;;26.95;9.18;;;;;;;;;;5043692;28;20068;-43
2023/12/01 08:55:16;;;;;;;30.85;9.95;;;;;;;;;;5016233;28;20051;-43
2023/12/01 08:57:44;;;;;;;33.65;11.38;;;;;;;;;;5019958;28;20060;-45
2023/12/01 09:00:14;;;;;;;33.17;10.20;;;;;;;;;;4653035;28;9999802;-43
2023/12/01 09:02:43;;;;;;;26.88;8.88;;;;;;;;;;5021105;28;20411;-43
2023/12/01 09:05:11;;;;;;;27.13;8.10;;;;;;;;;;5019038;28;20053;-45
2023/12/01 09:07:39;;;;;;;33.95;10.40;;;;;;;;;;5015094;28;20047;-45
2023/12/01 09:10:07;;;;;;;31.48;10.25;;;;;;;;;;5017178;28;20033;-45
2023/12/01 09:12:35;;;;;;;36.22;10.07;;;;;;;;;;4993244;28;20060;-43
2023/12/01 09:15:03;;;;;;;28.80;9.02;;;;;;;;;;5021528;28;20517;-44
2023/12/01 09:17:31;;;;;;;30.70;10.27;;;;;;;;;;5021599;28;20502;-43
2023/12/01 09:20:01;;;;;;;30.90;9.52;;;;;;;;;;5020354;28;20668;-43
2023/12/01 09:22:29;;;;;;;27.92;9.00;;;;;;;;;;4992505;28;20097;-43
2023/12/01 09:24:57;;;;;;;27.50;8.80;;;;;;;;;;5000706;28;20037;-43
2023/12/01 09:27:24;;;;;;;30.75;10.30;;;;;;;;;;4992170;28;20041;-45
2023/12/01 09:29:52;;;;;;;23.87;8.27;;;;;;;;;;5005551;28;20036;-45
2023/12/01 09:32:21;;;;;;;26.30;8.38;;;;;;;;;;5000345;28;20065;-43
2023/12/01 09:35:09;;;;;;;21.73;7.70;;;;;;;;;;4993746;28;20045;-45
2023/12/01 09:37:37;;;;;;;24.13;7.22;;;;;;;;;;5007496;28;20041;-45
2023/12/01 09:40:07;;;;;;;27.10;8.23;;;;;;;;;;5003769;28;20491;-44
2023/12/01 09:42:36;;;;;;;27.73;8.50;;;;;;;;;;5010788;28;20041;-44
2023/12/01 09:45:04;;;;;;;27.33;8.57;;;;;;;;;;5012863;28;20145;-43
2023/12/01 09:47:39;;;;;;;27.70;8.02;;;;;;;;;;5001797;28;20534;-43
2023/12/01 09:50:08;;;;;;;29.45;7.82;;;;;;;;;;5015926;28;20037;-43
2023/12/01 09:52:38;;;;;;;24.52;7.78;;;;;;;;;;5019652;28;20585;-43
2023/12/01 09:55:06;;;;;;;24.50;8.47;;;;;;;;;;5018880;28;20045;-45
2023/12/01 09:57:37;;;;;;;23.98;7.15;;;;;;;;;;5022009;28;20049;-43
2023/12/01 10:00:10;;;;;;;24.38;7.25;;;;;;;;;;5041761;28;20073;-43
2023/12/01 10:02:39;;;;;;;30.38;7.82;;;;;;;;;;5026040;28;20136;-45
2023/12/01 10:05:08;;;;;;;25.50;7.70;;;;;;;;;;5023264;28;20118;-44
2023/12/01 10:07:38;;;;;;;26.17;7.20;;;;;;;;;;5026879;28;20415;-44
2023/12/01 10:10:18;;;;;;;25.60;8.35;;;;;;;;;;5019459;28;20102;-43
2023/12/01 10:12:53;;;;;;;23.60;7.35;;;;;;;;;;5028632;28;20052;-44
2023/12/01 10:15:20;;;;;;;28.15;8.80;;;;;;;;;;5012292;28;20033;-44
2023/12/01 10:17:48;;;;;;;28.42;8.88;;;;;;;;;;5022970;28;20135;-45
2023/12/01 10:20:20;;;;;;;27.80;9.03;;;;;;;;;;5017064;28;20040;-43
2023/12/01 10:22:50;;;;;;;25.98;8.27;;;;;;;;;;5020212;28;20033;-43
2023/12/01 10:25:18;;;;;;;26.90;8.32;;;;;;;;;;5023291;28;20124;-43
2023/12/01 10:27:56;;;;;;;29.50;8.65;;;;;;;;;;5022726;28;20041;-44
2023/12/01 10:30:24;;;;;;;25.15;9.05;;;;;;;;;;5019856;28;20614;-43
2023/12/01 10:32:53;;;;;;;28.27;8.23;;;;;;;;;;5044427;28;20091;-43
2023/12/01 10:35:21;;;;;;;25.33;8.00;;;;;;;;;;5022780;28;20041;-43
2023/12/01 10:37:50;;;;;;;25.90;8.65;;;;;;;;;;5023518;28;20229;-43
2023/12/01 10:40:18;;;;;;;26.15;10.07;;;;;;;;;;5023688;28;20045;-43
2023/12/01 10:42:48;;;;;;;24.58;8.15;;;;;;;;;;5036346;28;20136;-43
2023/12/01 10:45:16;;;;;;;25.47;8.53;;;;;;;;;;5021803;28;20048;-45
2023/12/01 10:47:46;;;;;;;25.35;7.90;;;;;;;;;;5026564;28;20460;-43
2023/12/01 10:50:16;;;;;;;26.30;8.20;;;;;;;;;;5025834;28;20076;-43
2023/12/01 10:52:45;;;;;;;25.85;8.25;;;;;;;;;;5018421;28;20057;-43
2023/12/01 10:55:14;;;;;;;28.23;8.20;;;;;;;;;;5021094;28;20111;-43
2023/12/01 10:57:44;;;;;;;21.23;7.67;;;;;;;;;;5045263;28;20797;-44
2023/12/01 11:00:29;;;;;;;24.10;7.95;;;;;;;;;;4993130;28;20045;-43
2023/12/01 11:03:00;;;;;;;22.38;7.30;;;;;;;;;;4652500;28;10001639;-44
2023/12/01 11:05:30;;;;;;;22.45;7.82;;;;;;;;;;4996812;28;20502;-43
2023/12/01 11:08:05;;;;;;;21.90;7.45;;;;;;;;;;5006305;28;20107;-43
2023/12/01 11:10:38;;;;;;;27.77;9.00;;;;;;;;;;5001475;28;20052;-43
2023/12/01 11:13:14;;;;;;;24.92;7.78;;;;;;;;;;4989370;28;20055;-43
2023/12/01 11:15:42;;;;;;;26.13;8.30;;;;;;;;;;5006244;28;20045;-44
2023/12/01 11:18:10;;;;;;;26.17;8.35;;;;;;;;;;5008508;28;20623;-43
2023/12/01 11:20:42;;;;;;;22.52;8.55;;;;;;;;;;5007237;28;20049;-43
2023/12/01 11:23:24;;;;;;;25.03;9.00;;;;;;;;;;4996866;28;20036;-44
2023/12/01 11:25:55;;;;;;;23.95;8.35;;;;;;;;;;5011833;28;20111;-45
2023/12/01 11:28:28;;;;;;;26.55;8.32;;;;;;;;;;5008361;28;20106;-43
2023/12/01 11:31:18;;;;;;;27.45;8.88;;;;;;;;;;5007979;28;20955;-43
2023/12/01 11:33:48;;;;;;;26.08;9.27;;;;;;;;;;5010347;28;20047;-45
2023/12/01 11:36:19;;;;;;;27.40;8.83;;;;;;;;;;5000888;28;20037;-43
2023/12/01 11:39:08;;;;;;;24.15;8.57;;;;;;;;;;5013090;28;20045;-44
2023/12/01 11:41:40;;;;;;;25.20;8.25;;;;;;;;;;4991922;28;20661;-45
2023/12/01 11:44:10;;;;;;;25.98;8.98;;;;;;;;;;5009405;28;20127;-43
2023/12/01 11:46:38;;;;;;;27.65;8.35;;;;;;;;;;5056136;28;20037;-45
2023/12/01 11:49:06;;;;;;;24.80;8.77;;;;;;;;;;5021472;28;20102;-43
2023/12/01 11:51:34;;;;;;;28.73;9.70;;;;;;;;;;5030786;28;20122;-43
2023/12/01 11:54:02;;;;;;;23.83;9.13;;;;;;;;;;5021712;28;20045;-43
2023/12/01 11:56:31;;;;;;;30.70;9.73;;;;;;;;;;5031957;28;20479;-43
2023/12/01 11:59:01;;;;;;;24.10;9.30;;;;;;;;;;5019903;28;20045;-44
2023/12/01 12:01:30;;;;;;;21.10;8.53;;;;;;;;;;5030826;28;20044;-43
2023/12/01 12:03:58;;;;;;;19.67;7.75;;;;;;;;;;5022950;28;20040;-44
2023/12/01 12:06:27;;;;;;;23.67;9.10;;;;;;;;;;5028702;28;20106;-43
2023/12/01 12:08:55;;;;;;;25.38;9.88;;;;;;;;;;5023591;28;20040;-43
2023/12/01 12:11:23;;;;;;;25.02;8.82;;;;;;;;;;5029666;28;20064;-43
2023/12/01 12:13:55;;;;;;;26.57;9.50;;;;;;;;;;5028299;28;20041;-45
2023/12/01 12:16:24;;;;;;;23.25;8.95;;;;;;;;;;5026736;28;20036;-43
2023/12/01 12:18:52;;;;;;;24.10;8.88;;;;;;;;;;5021136;28;20041;-43
2023/12/01 12:21:20;;;;;;;27.45;9.05;;;;;;;;;;5024495;28;20052;-44
2023/12/01 12:24:06;;;;;;;28.05;9.32;;;;;;;;;;5029092;28;20055;-43
2023/12/01 12:26:34;;;;;;;22.70;8.67;;;;;;;;;;5024244;28;20041;-43
2023/12/01 12:29:02;;;;;;;22.10;8.25;;;;;;;;;;5027030;28;20144;-43
2023/12/01 12:31:32;;;;;;;22.50;8.38;;;;;;;;;;5010968;28;20161;-43
2023/12/01 12:34:00;;;;;;;20.10;7.70;;;;;;;;;;5022452;28;20029;-43
2023/12/01 12:36:30;;;;;;;22.50;8.10;;;;;;;;;;5016444;28;20063;-45
2023/12/01 12:38:59;;;;;;;19.30;7.87;;;;;;;;;;4681720;28;10000245;-43
2023/12/01 12:41:27;;;;;;;22.67;8.35;;;;;;;;;;5023338;28;20037;-43
2023/12/01 12:43:56;;;;;;;22.87;8.37;;;;;;;;;;5024105;28;20044;-43
2023/12/01 12:46:24;;;;;;;21.42;8.25;;;;;;;;;;5044009;28;20033;-43
2023/12/01 12:48:58;;;;;;;20.63;7.90;;;;;;;;;;5023028;28;20094;-43
2023/12/01 12:51:26;;;;;;;19.10;7.03;;;;;;;;;;5018446;28;20045;-43
2023/12/01 12:53:55;;;;;;;17.23;7.35;;;;;;;;;;5018341;28;20048;-43
2023/12/01 12:56:23;;;;;;;22.83;7.37;;;;;;;;;;5018109;28;20045;-43
2023/12/01 12:58:51;;;;;;;17.73;6.93;;;;;;;;;;5021455;28;20049;-44
2023/12/01 13:01:19;;;;;;;20.15;6.95;;;;;;;;;;5019619;28;20116;-43
2023/12/01 13:03:48;;;;;;;17.83;6.72;;;;;;;;;;5023494;28;20051;-44
2023/12/01 13:06:20;;;;;;;21.75;7.70;;;;;;;;;;5024231;28;20037;-44
2023/12/01 13:08:49;;;;;;;25.10;8.82;;;;;;;;;;4665418;28;9999737;-44
2023/12/01 13:11:17;;;;;;;21.63;8.17;;;;;;;;;;5022312;28;20045;-43
2023/12/01 13:13:45;;;;;;;18.70;7.30;;;;;;;;;;5016642;28;20056;-43
2023/12/01 13:16:13;;;;;;;23.42;8.15;;;;;;;;;;5023529;28;20519;-43
2023/12/01 13:18:41;;;;;;;27.23;8.40;;;;;;;;;;5016450;28;20475;-45
2023/12/01 13:21:09;;;;;;;22.98;8.00;;;;;;;;;;5029779;28;20045;-43
2023/12/01 13:23:40;;;;;;;24.73;9.00;;;;;;;;;;5021217;28;20037;-43
2023/12/01 13:26:08;;;;;;;20.25;8.13;;;;;;;;;;5026763;28;20043;-43
2023/12/01 13:28:36;;;;;;;18.98;7.43;;;;;;;;;;5018569;28;20044;-43
2023/12/01 13:31:04;;;;;;;22.92;8.13;;;;;;;;;;5029453;28;20043;-43
2023/12/01 13:33:31;;;;;;;20.33;7.97;;;;;;;;;;5004308;28;20032;-43
2023/12/01 13:35:59;;;;;;;17.60;7.17;;;;;;;;;;5019509;28;20043;-43
2023/12/01 13:38:28;;;;;;;20.75;7.60;;;;;;;;;;5017627;28;20584;-45
2023/12/01 13:41:14;;;;;;;22.38;8.13;;;;;;;;;;5021215;28;20087;-43
2023/12/01 13:43:42;;;;;;;19.10;8.38;;;;;;;;;;5023488;28;20045;-44
2023/12/01 13:46:10;;;;;;;22.95;9.15;;;;;;;;;;5024588;28;20048;-43
2023/12/01 13:48:38;;;;;;;19.07;8.47;;;;;;;;;;5022866;28;20063;-44
2023/12/01 13:51:07;;;;;;;20.15;8.05;;;;;;;;;;5025677;28;20041;-43
2023/12/01 13:53:35;;;;;;;25.33;8.50;;;;;;;;;;5016453;28;20053;-43
2023/12/01 13:56:04;;;;;;;21.92;8.10;;;;;;;;;;5027046;28;20251;-43
2023/12/01 13:58:40;;;;;;;20.98;8.15;;;;;;;;;;5012239;28;20053;-44
2023/12/01 14:01:12;;;;;;;21.77;8.07;;;;;;;;;;5023809;28;20051;-43
2023/12/01 14:03:40;;;;;;;20.05;8.27;;;;;;;;;;5021521;28;20577;-43
2023/12/01 14:06:08;;;;;;;20.02;7.63;;;;;;;;;;5023581;28;20487;-43
2023/12/01 14:08:36;;;;;;;20.90;7.70;;;;;;;;;;5023316;28;20063;-43
2023/12/01 14:11:05;;;;;;;19.67;8.40;;;;;;;;;;5027303;28;20881;-43
2023/12/01 14:13:33;;;;;;;20.80;8.20;;;;;;;;;;5024869;28;20037;-43
2023/12/01 14:16:02;;;;;;;18.08;7.05;;;;;;;;;;5021148;28;20553;-43
2023/12/01 14:18:33;;;;;;;18.83;7.47;;;;;;;;;;5019715;28;20647;-44
2023/12/01 14:21:01;;;;;;;21.80;7.68;;;;;;;;;;5026312;28;20119;-44
2023/12/01 14:23:29;;;;;;;22.30;8.80;;;;;;;;;;5023360;28;20033;-43
2023/12/01 14:25:56;;;;;;;17.50;7.33;;;;;;;;;;5024980;28;20477;-43
2023/12/01 14:28:24;;;;;;;20.25;6.75;;;;;;;;;;5023592;28;20048;-43
2023/12/01 14:30:52;;;;;;;18.90;7.35;;;;;;;;;;5022604;28;20076;-44
2023/12/01 14:33:21;;;;;;;20.27;8.23;;;;;;;;;;5023398;28;20033;-45
2023/12/01 14:35:49;;;;;;;20.83;8.10;;;;;;;;;;5024571;28;20033;-43